Time;durP1;ratioP1;P1;durP2;ratioP2;P2;SDS_P1;SDS_P2;PMS_P1;PMS_P2;Temp;Humidity;BMP_temperature;BMP_pressure;BME280_temperature;BME280_humidity;BME280_pressure;Samples;Min_cycle;Max_cycle;Signal;HPM_P1;HPM_P2
2023/10/16 06:26:15;;;;;;;;;9.50;8.25;;;;;;;;6261890;22;46159;-70
2023/10/16 06:28:47;;;;;;;;;6.75;6.75;;;;;;;;6308745;22;45392;-70
2023/10/16 06:31:24;;;;;;;;;6.00;4.00;;;;;;;;6279735;22;45409;-70
2023/10/16 06:33:53;;;;;;;;;4.00;4.00;;;;;;;;6279397;22;46263;-71
2023/10/16 06:36:20;;;;;;;;;7.75;7.50;;;;;;;;6308099;22;45346;-70
2023/10/16 06:38:45;;;;;;;;;8.75;7.00;;;;;;;;6309383;22;45234;-71
2023/10/16 06:41:15;;;;;;;;;7.75;7.50;;;;;;;;6307880;22;45252;-70
2023/10/16 06:43:40;;;;;;;;;7.50;5.00;;;;;;;;6310162;22;45616;-71
2023/10/16 06:46:09;;;;;;;;;12.00;6.00;;;;;;;;6308593;22;45321;-71
2023/10/16 06:48:37;;;;;;;;;10.50;7.00;;;;;;;;6309193;22;45277;-71
2023/10/16 06:51:14;;;;;;;;;11.00;8.00;;;;;;;;6308258;22;45470;-71
2023/10/16 06:53:39;;;;;;;;;8.00;6.75;;;;;;;;6308846;22;46610;-70
2023/10/16 06:56:05;;;;;;;;;9.25;8.75;;;;;;;;6308195;22;45435;-71
2023/10/16 06:58:31;;;;;;;;;8.25;7.50;;;;;;;;6309206;22;45207;-71
2023/10/16 07:00:57;;;;;;;;;10.25;8.00;;;;;;;;6308345;22;45171;-71
2023/10/16 07:03:22;;;;;;;;;12.00;6.00;;;;;;;;6308596;22;46085;-71
2023/10/16 07:05:48;;;;;;;;;8.50;7.25;;;;;;;;6308693;22;45561;-71
2023/10/16 07:08:17;;;;;;;;;5.75;5.75;;;;;;;;6280932;22;45369;-71
2023/10/16 07:10:49;;;;;;;;;8.00;8.00;;;;;;;;6279971;22;46035;-71
2023/10/16 07:13:15;;;;;;;;;9.75;8.75;;;;;;;;6308449;22;46137;-73
2023/10/16 07:15:40;;;;;;;;;10.50;8.75;;;;;;;;6308545;22;45227;-72
2023/10/16 07:18:05;;;;;;;;;10.50;6.75;;;;;;;;6308703;22;45216;-73
2023/10/16 07:20:52;;;;;;;;;10.75;7.25;;;;;;;;6307783;22;45315;-73
2023/10/16 07:23:17;;;;;;;;;10.75;7.25;;;;;;;;6308596;22;45583;-73
2023/10/16 07:25:56;;;;;;;;;9.25;6.75;;;;;;;;6310659;22;45266;-72
2023/10/16 07:28:21;;;;;;;;;5.75;5.25;;;;;;;;6340454;22;45179;-75
2023/10/16 07:30:46;;;;;;;;;5.00;5.00;;;;;;;;6339582;22;45182;-74
2023/10/16 07:33:15;;;;;;;;;10.00;8.25;;;;;;;;6339990;22;45506;-73
2023/10/16 07:35:44;;;;;;;;;8.75;7.00;;;;;;;;6339909;22;45283;-73
2023/10/16 07:38:10;;;;;;;;;12.25;9.00;;;;;;;;6340099;22;45109;-73
2023/10/16 07:40:37;;;;;;;;;5.25;5.25;;;;;;;;6339701;22;45207;-74
2023/10/16 07:43:02;;;;;;;;;9.75;7.25;;;;;;;;6339653;22;45211;-72
2023/10/16 07:45:32;;;;;;;;;8.75;8.75;;;;;;;;6340089;22;45222;-73
2023/10/16 07:48:07;;;;;;;;;9.25;8.00;;;;;;;;6339835;22;45236;-72
2023/10/16 07:50:32;;;;;;;;;8.75;8.00;;;;;;;;6306959;22;46744;-72
2023/10/16 07:52:57;;;;;;;;;6.25;4.00;;;;;;;;6338390;22;45365;-72
2023/10/16 07:55:38;;;;;;;;;7.75;7.00;;;;;;;;6339445;22;45310;-72
2023/10/16 07:58:11;;;;;;;;;7.50;7.00;;;;;;;;6339829;22;45284;-72
2023/10/16 08:00:56;;;;;;;;;9.50;4.00;;;;;;;;6310469;22;45615;-72
2023/10/16 08:03:22;;;;;;;;;6.50;6.50;;;;;;;;6339438;22;45497;-72
2023/10/16 08:05:47;;;;;;;;;10.50;7.00;;;;;;;;6311327;22;45326;-71
2023/10/16 08:08:12;;;;;;;;;13.00;8.00;;;;;;;;6311373;22;45221;-71
2023/10/16 08:10:41;;;;;;;;;8.00;8.00;;;;;;;;6339186;22;45230;-71
2023/10/16 08:13:13;;;;;;;;;10.00;8.00;;;;;;;;6339955;22;46068;-71
2023/10/16 08:15:44;;;;;;;;;9.00;8.00;;;;;;;;6310589;22;45334;-71
2023/10/16 08:18:10;;;;;;;;;8.00;8.00;;;;;;;;6339892;22;45446;-71
2023/10/16 08:23:21;;;;;;;;;10.00;9.00;;;;;;;;6340273;22;45227;-72
2023/10/16 08:25:47;;;;;;;;;11.00;8.50;;;;;;;;6338116;22;45181;-72
2023/10/16 08:28:24;;;;;;;;;6.75;5.50;;;;;;;;6311254;22;45236;-72
2023/10/16 08:30:51;;;;;;;;;15.25;7.75;;;;;;;;6339167;22;44699;-73
2023/10/16 08:33:17;;;;;;;;;8.25;5.00;;;;;;;;6338953;22;46109;-72
2023/10/16 08:35:42;;;;;;;;;10.75;8.25;;;;;;;;6340208;22;45216;-72
2023/10/16 08:38:15;;;;;;;;;5.00;4.00;;;;;;;;6341271;22;45196;-72
2023/10/16 08:40:43;;;;;;;;;7.00;7.00;;;;;;;;6340583;22;45291;-72
2023/10/16 08:43:09;;;;;;;;;12.00;10.00;;;;;;;;6340921;22;46375;-72
2023/10/16 08:45:39;;;;;;;;;10.00;8.75;;;;;;;;6340741;22;45167;-72
2023/10/16 08:48:09;;;;;;;;;7.00;6.25;;;;;;;;6340573;22;45108;-73
2023/10/16 08:50:41;;;;;;;;;5.75;5.00;;;;;;;;6340572;22;45476;-72
2023/10/16 08:55:56;;;;;;;;;6.25;5.00;;;;;;;;6339982;22;45243;-72
2023/10/16 08:58:22;;;;;;;;;6.00;6.00;;;;;;;;6313081;22;45278;-71
2023/10/16 09:00:48;;;;;;;;;11.00;9.25;;;;;;;;6339862;22;45223;-69
2023/10/16 09:03:16;;;;;;;;;7.25;6.00;;;;;;;;6340850;22;45375;-70
2023/10/16 09:05:43;;;;;;;;;3.50;3.50;;;;;;;;6312011;22;45145;-69
2023/10/16 09:08:14;;;;;;;;;8.25;8.00;;;;;;;;6341227;22;45224;-69
2023/10/16 09:10:40;;;;;;;;;5.00;3.00;;;;;;;;6336513;22;45294;-69
2023/10/16 09:13:15;;;;;;;;;5.50;4.50;;;;;;;;6335277;22;45234;-70
2023/10/16 09:15:45;;;;;;;;;7.75;4.75;;;;;;;;6338805;22;45328;-70
2023/10/16 09:18:11;;;;;;;;;5.00;3.25;;;;;;;;6310994;22;45207;-69
2023/10/16 09:20:41;;;;;;;;;4.25;3.00;;;;;;;;6338965;22;44661;-71
2023/10/16 09:23:07;;;;;;;;;6.00;6.00;;;;;;;;6310474;22;46832;-69
2023/10/16 09:25:33;;;;;;;;;4.75;4.00;;;;;;;;6337864;22;45313;-69
2023/10/16 09:27:59;;;;;;;;;9.00;4.75;;;;;;;;6311230;22;45650;-69
2023/10/16 09:30:28;;;;;;;;;6.00;6.00;;;;;;;;6338380;22;45274;-68
2023/10/16 09:32:54;;;;;;;;;10.00;9.00;;;;;;;;6338680;22;45413;-69
2023/10/16 09:35:30;;;;;;;;;13.25;13.00;;;;;;;;6338872;22;45491;-69
2023/10/16 09:38:09;;;;;;;;;6.00;4.25;;;;;;;;6339831;22;45322;-69
2023/10/16 09:40:37;;;;;;;;;9.00;7.00;;;;;;;;6338595;22;45305;-69
2023/10/16 09:43:06;;;;;;;;;5.25;4.50;;;;;;;;6338140;22;45206;-69
2023/10/16 09:45:41;;;;;;;;;7.25;7.00;;;;;;;;6339599;22;45296;-69
2023/10/16 09:48:19;;;;;;;;;4.75;4.75;;;;;;;;6340495;22;45245;-70
2023/10/16 09:50:45;;;;;;;;;7.50;4.00;;;;;;;;6339516;22;45144;-69
2023/10/16 09:53:10;;;;;;;;;6.00;5.00;;;;;;;;6311575;22;47318;-69
2023/10/16 09:55:39;;;;;;;;;4.00;4.00;;;;;;;;6339526;22;45404;-70
2023/10/16 09:58:08;;;;;;;;;4.75;4.75;;;;;;;;6340771;22;45195;-68
2023/10/16 10:00:35;;;;;;;;;6.50;5.00;;;;;;;;6312243;22;44936;-69
2023/10/16 10:03:05;;;;;;;;;6.25;4.75;;;;;;;;6311939;22;47887;-69
2023/10/16 10:05:35;;;;;;;;;4.50;4.50;;;;;;;;6340124;22;45271;-69
2023/10/16 10:08:15;;;;;;;;;6.00;5.00;;;;;;;;6340242;22;45279;-69
2023/10/16 10:11:05;;;;;;;;;4.00;4.00;;;;;;;;6340678;22;45263;-69
2023/10/16 10:13:34;;;;;;;;;4.00;4.00;;;;;;;;6339272;22;45005;-69
2023/10/16 10:16:00;;;;;;;;;7.50;5.25;;;;;;;;6340093;22;45271;-70
2023/10/16 10:18:32;;;;;;;;;6.00;3.25;;;;;;;;6340811;22;45300;-69
2023/10/16 10:21:11;;;;;;;;;5.00;4.00;;;;;;;;6311495;22;45228;-69
2023/10/16 10:23:37;;;;;;;;;6.75;6.00;;;;;;;;6340284;22;46117;-69
2023/10/16 10:26:07;;;;;;;;;4.50;4.50;;;;;;;;6309882;22;45215;-69
2023/10/16 10:28:32;;;;;;;;;4.75;4.75;;;;;;;;6312485;22;45207;-68
2023/10/16 10:31:02;;;;;;;;;4.00;4.00;;;;;;;;6311484;22;45432;-69
2023/10/16 10:33:37;;;;;;;;;5.00;3.50;;;;;;;;6312097;22;47855;-69
2023/10/16 10:36:22;;;;;;;;;4.75;4.00;;;;;;;;6339222;22;45294;-69
2023/10/16 10:38:47;;;;;;;;;5.50;4.50;;;;;;;;6312135;22;45550;-69
2023/10/16 10:41:13;;;;;;;;;6.00;4.50;;;;;;;;6339583;22;45209;-70
2023/10/16 10:43:44;;;;;;;;;4.00;4.00;;;;;;;;6340313;22;45473;-70
2023/10/16 10:46:10;;;;;;;;;6.00;4.75;;;;;;;;6340259;22;45247;-70
2023/10/16 10:48:38;;;;;;;;;8.25;5.50;;;;;;;;6312373;22;45262;-70
2023/10/16 10:51:05;;;;;;;;;4.50;4.00;;;;;;;;6309253;22;45766;-71
2023/10/16 10:53:30;;;;;;;;;6.25;5.75;;;;;;;;6339776;22;45253;-71
2023/10/16 10:55:56;;;;;;;;;4.00;4.00;;;;;;;;6339214;22;45203;-71
2023/10/16 10:58:25;;;;;;;;;4.00;4.00;;;;;;;;6312314;22;44680;-70
2023/10/16 11:00:50;;;;;;;;;5.00;4.00;;;;;;;;6339712;22;45226;-69
2023/10/16 11:03:34;;;;;;;;;3.50;3.00;;;;;;;;6340106;22;45249;-71
2023/10/16 11:05:59;;;;;;;;;4.33;4.33;;;;;;;;6339824;22;45344;-71
2023/10/16 11:08:29;;;;;;;;;3.00;3.00;;;;;;;;6312045;22;45279;-71
2023/10/16 11:10:56;;;;;;;;;6.67;3.33;;;;;;;;6339478;22;45416;-70
2023/10/16 11:13:22;;;;;;;;;3.00;3.00;;;;;;;;6311656;22;46116;-70
2023/10/16 11:15:48;;;;;;;;;3.67;3.33;;;;;;;;6340186;22;45150;-70
2023/10/16 11:18:13;;;;;;;;;6.00;3.67;;;;;;;;6340517;22;45218;-71
2023/10/16 11:20:39;;;;;;;;;3.00;2.00;;;;;;;;6339808;22;45388;-71
2023/10/16 11:23:25;;;;;;;;;3.33;3.00;;;;;;;;6339839;22;45321;-70
2023/10/16 11:25:51;;;;;;;;;4.00;4.00;;;;;;;;6339155;22;45248;-71
2023/10/16 11:28:22;;;;;;;;;4.00;4.00;;;;;;;;6340224;22;45283;-70
2023/10/16 11:30:49;;;;;;;;;4.33;3.00;;;;;;;;6339289;22;45205;-71
2023/10/16 11:33:23;;;;;;;;;7.00;5.00;;;;;;;;6311073;22;47732;-70
2023/10/16 11:35:48;;;;;;;;;3.00;3.00;;;;;;;;6339321;22;45231;-71
2023/10/16 11:38:28;;;;;;;;;3.33;3.33;;;;;;;;6340140;22;45149;-70
2023/10/16 11:40:53;;;;;;;;;2.67;2.33;;;;;;;;6339210;22;45279;-72
2023/10/16 11:43:19;;;;;;;;;2.67;2.67;;;;;;;;6340211;22;45213;-71
2023/10/16 11:45:53;;;;;;;;;3.00;3.00;;;;;;;;6339736;22;45094;-71
2023/10/16 11:50:44;;;;;;;;;3.00;3.00;;;;;;;;6336081;22;45227;-71
2023/10/16 11:53:10;;;;;;;;;6.00;5.00;;;;;;;;6340277;22;45506;-71
2023/10/16 11:55:36;;;;;;;;;4.33;4.33;;;;;;;;6339194;22;45163;-71
2023/10/16 11:58:02;;;;;;;;;6.33;4.67;;;;;;;;6340357;22;45234;-72
2023/10/16 12:00:30;;;;;;;;;4.33;4.00;;;;;;;;6339775;22;45205;-71
2023/10/16 12:02:55;;;;;;;;;2.33;2.33;;;;;;;;6339835;22;45333;-70
2023/10/16 12:05:21;;;;;;;;;6.67;4.67;;;;;;;;6339003;22;45203;-71
2023/10/16 12:07:48;;;;;;;;;4.33;3.33;;;;;;;;6341233;22;45208;-71
2023/10/16 12:10:15;;;;;;;;;6.33;4.00;;;;;;;;6340646;22;45266;-71
2023/10/16 12:12:40;;;;;;;;;3.33;3.33;;;;;;;;6312855;22;47787;-72
2023/10/16 12:15:09;;;;;;;;;5.33;2.33;;;;;;;;6340971;22;45137;-70
2023/10/16 12:17:36;;;;;;;;;1.00;1.00;;;;;;;;6312054;22;45296;-71
2023/10/16 12:20:09;;;;;;;;;3.00;2.00;;;;;;;;6340771;22;45530;-69
2023/10/16 12:22:37;;;;;;;;;3.00;3.00;;;;;;;;6340669;22;46364;-71
2023/10/16 12:25:08;;;;;;;;;2.67;2.00;;;;;;;;6311503;22;45211;-71
2023/10/16 12:27:33;;;;;;;;;4.67;3.67;;;;;;;;6339939;22;45384;-71
2023/10/16 12:30:01;;;;;;;;;2.67;1.00;;;;;;;;6340492;22;45127;-71
2023/10/16 12:32:26;;;;;;;;;2.00;2.00;;;;;;;;6340573;22;46537;-72
2023/10/16 12:34:54;;;;;;;;;3.67;1.00;;;;;;;;6340365;22;45234;-72
2023/10/16 12:37:22;;;;;;;;;2.67;2.33;;;;;;;;6341017;22;45168;-71
2023/10/16 12:39:47;;;;;;;;;1.00;1.00;;;;;;;;6312221;22;46891;-71
2023/10/16 12:42:13;;;;;;;;;2.00;2.00;;;;;;;;6311376;22;45380;-71
2023/10/16 12:44:39;;;;;;;;;1.00;1.00;;;;;;;;6341236;22;45348;-72
2023/10/16 12:47:05;;;;;;;;;1.00;1.00;;;;;;;;6312453;22;45338;-72
2023/10/16 12:49:30;;;;;;;;;1.33;0.33;;;;;;;;6341215;22;45377;-70
2023/10/16 12:51:55;;;;;;;;;2.00;1.00;;;;;;;;6340435;22;44966;-72
2023/10/16 12:54:24;;;;;;;;;1.67;1.67;;;;;;;;6340561;22;45303;-72
2023/10/16 12:56:52;;;;;;;;;0.00;0.00;;;;;;;;6340442;22;45152;-72
2023/10/16 12:59:17;;;;;;;;;3.00;1.00;;;;;;;;6312879;22;45462;-72
2023/10/16 13:01:45;;;;;;;;;2.00;1.00;;;;;;;;6340713;22;45514;-72
2023/10/16 13:04:15;;;;;;;;;1.00;1.00;;;;;;;;6340863;22;45329;-72
2023/10/16 13:06:40;;;;;;;;;2.00;1.00;;;;;;;;6340863;22;45213;-71
2023/10/16 13:09:05;;;;;;;;;1.67;1.67;;;;;;;;6340973;22;45089;-70
2023/10/16 13:11:31;;;;;;;;;1.00;1.00;;;;;;;;6340270;22;44877;-70
2023/10/16 13:13:57;;;;;;;;;1.00;1.00;;;;;;;;6341063;22;45242;-71
2023/10/16 13:16:26;;;;;;;;;0.00;0.00;;;;;;;;6340969;22;45069;-71
2023/10/16 13:18:57;;;;;;;;;1.67;1.67;;;;;;;;6311738;22;45927;-71
2023/10/16 13:21:31;;;;;;;;;2.00;2.00;;;;;;;;6311648;22;47660;-70
2023/10/16 13:23:57;;;;;;;;;1.00;1.00;;;;;;;;6340885;22;45242;-71
2023/10/16 13:26:22;;;;;;;;;1.00;1.00;;;;;;;;6340081;22;45136;-71
2023/10/16 13:28:48;;;;;;;;;1.00;1.00;;;;;;;;6340996;22;45203;-71
2023/10/16 13:31:13;;;;;;;;;1.00;1.00;;;;;;;;6340317;22;45375;-72
2023/10/16 13:33:42;;;;;;;;;0.33;0.33;;;;;;;;6340913;22;45341;-72
2023/10/16 13:36:11;;;;;;;;;1.00;1.00;;;;;;;;6341053;22;45349;-72
2023/10/16 13:38:37;;;;;;;;;2.00;2.00;;;;;;;;6340790;22;45464;-72
2023/10/16 13:41:09;;;;;;;;;1.33;1.00;;;;;;;;6340002;22;45537;-71
2023/10/16 13:43:34;;;;;;;;;2.00;1.00;;;;;;;;6341914;22;45085;-72
2023/10/16 13:46:01;;;;;;;;;2.00;0.00;;;;;;;;6340669;22;45251;-73
2023/10/16 13:48:28;;;;;;;;;1.00;1.00;;;;;;;;6340812;22;45165;-72
2023/10/16 13:50:53;;;;;;;;;1.33;0.00;;;;;;;;6340221;22;45331;-72
2023/10/16 13:53:19;;;;;;;;;2.67;1.00;;;;;;;;6340699;22;45161;-72
2023/10/16 13:55:45;;;;;;;;;3.00;1.00;;;;;;;;6340139;22;44989;-71
2023/10/16 13:58:10;;;;;;;;;2.00;2.00;;;;;;;;6340522;22;45160;-71
2023/10/16 14:00:35;;;;;;;;;2.67;1.67;;;;;;;;6339672;22;45411;-71
2023/10/16 14:03:04;;;;;;;;;2.00;2.00;;;;;;;;6312186;22;45212;-72
2023/10/16 14:05:30;;;;;;;;;2.00;2.00;;;;;;;;6338648;22;45227;-73
2023/10/16 14:07:55;;;;;;;;;2.00;2.00;;;;;;;;6340454;22;45373;-71
2023/10/16 14:10:21;;;;;;;;;2.33;2.33;;;;;;;;6339567;22;45460;-73
2023/10/16 14:12:53;;;;;;;;;3.00;2.00;;;;;;;;6340519;22;45159;-73
2023/10/16 14:15:19;;;;;;;;;4.00;3.00;;;;;;;;6340296;22;45180;-73
2023/10/16 14:17:47;;;;;;;;;3.00;2.00;;;;;;;;6310871;22;45237;-73
2023/10/16 14:20:15;;;;;;;;;2.00;2.00;;;;;;;;6340126;22;45699;-72
2023/10/16 14:22:47;;;;;;;;;5.00;3.00;;;;;;;;6340793;22;44660;-73
2023/10/16 14:25:13;;;;;;;;;3.00;2.00;;;;;;;;6340140;22;45194;-72
2023/10/16 14:27:39;;;;;;;;;1.00;1.00;;;;;;;;6340112;22;45179;-72
2023/10/16 14:30:05;;;;;;;;;2.67;2.00;;;;;;;;6337097;22;46462;-72
2023/10/16 14:32:31;;;;;;;;;3.33;2.00;;;;;;;;6340329;22;45236;-71
2023/10/16 14:34:56;;;;;;;;;3.00;1.00;;;;;;;;6310247;22;44727;-71
2023/10/16 14:37:21;;;;;;;;;1.00;1.00;;;;;;;;6339778;22;45290;-71
2023/10/16 14:39:51;;;;;;;;;2.67;2.00;;;;;;;;6339627;22;45303;-70
2023/10/16 14:42:17;;;;;;;;;1.00;1.00;;;;;;;;6339933;22;45117;-70
2023/10/16 14:44:45;;;;;;;;;1.33;1.33;;;;;;;;6311938;22;45257;-71
2023/10/16 14:47:10;;;;;;;;;1.33;1.33;;;;;;;;6340218;22;45445;-71
2023/10/16 14:49:35;;;;;;;;;2.00;2.00;;;;;;;;6340292;22;45332;-71
2023/10/16 14:52:02;;;;;;;;;3.00;1.67;;;;;;;;6338258;22;45224;-71
2023/10/16 14:54:27;;;;;;;;;4.00;2.00;;;;;;;;6340413;22;45247;-71
2023/10/16 14:56:58;;;;;;;;;2.00;2.00;;;;;;;;6339497;22;45333;-71
2023/10/16 14:59:27;;;;;;;;;3.00;1.00;;;;;;;;6311279;22;47815;-71
2023/10/16 15:01:53;;;;;;;;;2.00;2.00;;;;;;;;6339884;22;45232;-71
2023/10/16 15:04:20;;;;;;;;;2.00;1.67;;;;;;;;6340599;22;45327;-71
2023/10/16 15:06:46;;;;;;;;;2.67;1.00;;;;;;;;6339887;22;45165;-71
2023/10/16 15:09:16;;;;;;;;;1.00;1.00;;;;;;;;6340344;22;46055;-71
2023/10/16 15:11:42;;;;;;;;;2.00;2.00;;;;;;;;6338157;22;45211;-73
2023/10/16 15:14:08;;;;;;;;;2.00;1.00;;;;;;;;6340365;22;45251;-73
2023/10/16 15:16:33;;;;;;;;;1.00;1.00;;;;;;;;6339609;22;45403;-72
2023/10/16 15:19:00;;;;;;;;;2.00;1.00;;;;;;;;6340203;22;45452;-72
2023/10/16 15:21:25;;;;;;;;;1.00;1.00;;;;;;;;6338403;22;45219;-72
2023/10/16 15:23:50;;;;;;;;;1.33;1.33;;;;;;;;6340331;22;45092;-72
2023/10/16 15:26:16;;;;;;;;;2.00;2.00;;;;;;;;6337233;22;45489;-72
2023/10/16 15:28:41;;;;;;;;;1.00;1.00;;;;;;;;6313781;22;47697;-72
2023/10/16 15:31:06;;;;;;;;;1.33;1.33;;;;;;;;6339715;22;45162;-72
2023/10/16 15:33:32;;;;;;;;;3.00;1.00;;;;;;;;6312026;22;45156;-72
2023/10/16 15:35:58;;;;;;;;;1.00;1.00;;;;;;;;6339888;22;45356;-72
2023/10/16 15:38:28;;;;;;;;;2.33;1.00;;;;;;;;6311680;22;47571;-72
2023/10/16 15:40:55;;;;;;;;;0.33;0.33;;;;;;;;6337869;22;45262;-72
2023/10/16 15:43:20;;;;;;;;;1.00;1.00;;;;;;;;6341332;22;45203;-72
2023/10/16 15:45:46;;;;;;;;;2.00;2.00;;;;;;;;6312587;22;45402;-72
2023/10/16 15:48:12;;;;;;;;;3.00;1.00;;;;;;;;6312852;22;47236;-72
2023/10/16 15:50:37;;;;;;;;;3.00;1.33;;;;;;;;6341082;22;45210;-72
2023/10/16 15:53:06;;;;;;;;;1.00;1.00;;;;;;;;6341477;22;45349;-72
2023/10/16 15:55:31;;;;;;;;;2.00;1.00;;;;;;;;6340515;22;45329;-73
2023/10/16 15:57:57;;;;;;;;;2.00;0.00;;;;;;;;6341098;22;45275;-74
2023/10/16 16:00:26;;;;;;;;;1.67;1.67;;;;;;;;6341096;22;44648;-72
2023/10/16 16:02:55;;;;;;;;;0.00;0.00;;;;;;;;6312358;22;45182;-72
2023/10/16 16:05:22;;;;;;;;;1.00;0.00;;;;;;;;6311545;22;46795;-72
2023/10/16 16:07:49;;;;;;;;;1.67;1.00;;;;;;;;6341205;22;45500;-72
2023/10/16 16:10:15;;;;;;;;;1.00;1.00;;;;;;;;6340190;22;45243;-72
2023/10/16 16:12:40;;;;;;;;;2.33;2.00;;;;;;;;6312683;22;44756;-73
2023/10/16 16:15:06;;;;;;;;;2.00;2.00;;;;;;;;6340565;22;45121;-72
2023/10/16 16:17:32;;;;;;;;;1.00;1.00;;;;;;;;6340581;22;45392;-72
2023/10/16 16:19:57;;;;;;;;;1.00;1.00;;;;;;;;6340549;22;44570;-73
2023/10/16 16:22:22;;;;;;;;;2.33;2.33;;;;;;;;6340858;22;45120;-72
2023/10/16 16:24:47;;;;;;;;;1.00;1.00;;;;;;;;6340677;22;45144;-72
2023/10/16 16:27:13;;;;;;;;;6.67;6.00;;;;;;;;6340195;22;45355;-72
2023/10/16 16:29:38;;;;;;;;;2.67;2.67;;;;;;;;6311882;22;45288;-74
2023/10/16 16:32:04;;;;;;;;;1.00;1.00;;;;;;;;6342014;22;45181;-72
2023/10/16 16:34:29;;;;;;;;;0.00;0.00;;;;;;;;6340294;22;45505;-73
2023/10/16 16:36:55;;;;;;;;;4.00;1.33;;;;;;;;6334164;22;45670;-72
2023/10/16 16:39:20;;;;;;;;;1.00;1.00;;;;;;;;6311749;22;44635;-72
2023/10/16 16:41:45;;;;;;;;;2.00;1.67;;;;;;;;6338964;22;45289;-73
2023/10/16 16:44:10;;;;;;;;;1.33;1.33;;;;;;;;6339495;22;45370;-73
2023/10/16 16:46:35;;;;;;;;;1.00;1.00;;;;;;;;6337326;22;45496;-73
2023/10/16 16:49:01;;;;;;;;;3.33;2.00;;;;;;;;6338581;22;45401;-73
2023/10/16 16:51:27;;;;;;;;;3.33;2.67;;;;;;;;6338644;22;45329;-73
2023/10/16 16:53:52;;;;;;;;;1.00;1.00;;;;;;;;6338197;22;45362;-73
2023/10/16 16:56:18;;;;;;;;;2.00;2.00;;;;;;;;6337317;22;45580;-73
2023/10/16 16:58:44;;;;;;;;;6.75;6.00;;;;;;;;6338127;22;45346;-74
2023/10/16 17:01:09;;;;;;;;;4.25;4.00;;;;;;;;6338651;22;45381;-74
2023/10/16 17:03:34;;;;;;;;;6.00;5.00;;;;;;;;6339175;22;45517;-73
2023/10/16 17:05:59;;;;;;;;;9.75;6.00;;;;;;;;6338322;22;45543;-73
2023/10/16 17:08:25;;;;;;;;;8.25;8.25;;;;;;;;6338261;22;45270;-75
2023/10/16 17:10:52;;;;;;;;;5.25;5.25;;;;;;;;6340235;22;45284;-74
2023/10/16 17:13:18;;;;;;;;;21.50;20.00;;;;;;;;6337443;22;45310;-74
2023/10/16 17:15:43;;;;;;;;;27.75;26.25;;;;;;;;6338077;22;45667;-74
2023/10/16 17:18:09;;;;;;;;;10.50;10.25;;;;;;;;6339932;22;45125;-73
2023/10/16 17:20:34;;;;;;;;;75.50;58.75;;;;;;;;6340415;22;45195;-73
2023/10/16 17:22:59;;;;;;;;;11.25;9.75;;;;;;;;6340299;22;44937;-72
2023/10/16 17:25:25;;;;;;;;;30.75;30.75;;;;;;;;6340401;22;45441;-73
2023/10/16 17:27:51;;;;;;;;;92.67;82.00;;;;;;;;6312210;22;45251;-73
2023/10/16 17:30:17;;;;;;;;;68.50;53.25;;;;;;;;6341096;22;45432;-74
2023/10/16 17:32:42;;;;;;;;;60.00;45.25;;;;;;;;6341265;22;45227;-73
2023/10/16 17:35:09;;;;;;;;;56.25;46.00;;;;;;;;6340620;22;45485;-73
2023/10/16 17:37:36;;;;;;;;;152.50;134.50;;;;;;;;6341378;22;45208;-73
2023/10/16 17:40:06;;;;;;;;;45.75;36.25;;;;;;;;6340657;22;45242;-72
2023/10/16 17:42:32;;;;;;;;;176.50;160.50;;;;;;;;6341255;22;45332;-73
2023/10/16 17:44:57;;;;;;;;;60.25;47.75;;;;;;;;6340733;22;45545;-73
2023/10/16 17:47:22;;;;;;;;;60.25;46.00;;;;;;;;6340928;22;45282;-72
2023/10/16 17:49:47;;;;;;;;;43.25;37.25;;;;;;;;6341193;22;45298;-72
2023/10/16 17:52:14;;;;;;;;;21.50;19.25;;;;;;;;6340856;22;45203;-72
2023/10/16 17:54:40;;;;;;;;;38.25;34.50;;;;;;;;6312230;22;46538;-72
2023/10/16 17:57:06;;;;;;;;;30.50;30.00;;;;;;;;6340643;22;45309;-72
2023/10/16 17:59:32;;;;;;;;;18.25;16.25;;;;;;;;6341188;22;45184;-73
2023/10/16 18:01:59;;;;;;;;;83.33;76.67;;;;;;;;6340489;22;45206;-73
2023/10/16 18:04:24;;;;;;;;;7.00;6.00;;;;;;;;6340667;22;46258;-74
2023/10/16 18:06:50;;;;;;;;;13.50;12.25;;;;;;;;6340380;22;45165;-73
2023/10/16 18:09:15;;;;;;;;;21.75;19.50;;;;;;;;6341066;22;45219;-73
2023/10/16 18:11:41;;;;;;;;;57.00;47.00;;;;;;;;6339815;22;45274;-73
2023/10/16 18:14:12;;;;;;;;;152.50;136.25;;;;;;;;6340867;22;45288;-72
2023/10/16 18:16:40;;;;;;;;;21.00;19.00;;;;;;;;6340569;22;45240;-73
2023/10/16 18:19:05;;;;;;;;;31.25;30.00;;;;;;;;6340910;22;45287;-73
2023/10/16 18:21:30;;;;;;;;;19.50;18.00;;;;;;;;6311787;22;47199;-73
2023/10/16 18:23:57;;;;;;;;;19.25;19.25;;;;;;;;6340685;22;45355;-73
2023/10/16 18:26:23;;;;;;;;;58.25;46.25;;;;;;;;6339238;22;45251;-72
2023/10/16 18:28:48;;;;;;;;;33.75;30.75;;;;;;;;6311835;22;45308;-74
2023/10/16 18:31:13;;;;;;;;;16.50;15.00;;;;;;;;6340294;22;45204;-73
2023/10/16 18:33:48;;;;;;;;;23.00;20.00;;;;;;;;6340601;22;45344;-73
2023/10/16 18:36:14;;;;;;;;;10.00;7.50;;;;;;;;6340592;22;45244;-73
2023/10/16 18:38:40;;;;;;;;;4.00;3.00;;;;;;;;6312633;22;45285;-74
2023/10/16 18:41:09;;;;;;;;;6.50;5.00;;;;;;;;6312688;22;46072;-74
2023/10/16 18:43:34;;;;;;;;;12.75;10.25;;;;;;;;6340830;22;46029;-72
2023/10/16 18:46:00;;;;;;;;;4.00;4.00;;;;;;;;6340777;22;45214;-73
2023/10/16 18:48:25;;;;;;;;;6.50;5.75;;;;;;;;6341358;22;45293;-73
2023/10/16 18:50:50;;;;;;;;;4.25;4.00;;;;;;;;6340754;22;45273;-73
2023/10/16 18:53:15;;;;;;;;;7.75;4.00;;;;;;;;6340905;22;45359;-73
2023/10/16 18:55:41;;;;;;;;;5.50;5.50;;;;;;;;6340276;22;45184;-72
2023/10/16 18:58:06;;;;;;;;;7.75;6.00;;;;;;;;6341034;22;45266;-72
2023/10/16 19:00:31;;;;;;;;;8.00;5.50;;;;;;;;6341798;22;45270;-71
2023/10/16 19:02:56;;;;;;;;;5.25;5.25;;;;;;;;6312089;22;48301;-72
2023/10/16 19:05:23;;;;;;;;;6.00;4.25;;;;;;;;6340136;22;45272;-73
2023/10/16 19:07:48;;;;;;;;;4.00;4.00;;;;;;;;6340918;22;45241;-73
2023/10/16 19:10:13;;;;;;;;;5.25;5.25;;;;;;;;6339834;22;45307;-74
2023/10/16 19:12:38;;;;;;;;;9.50;7.75;;;;;;;;6340691;22;45289;-73
2023/10/16 19:15:05;;;;;;;;;7.75;7.00;;;;;;;;6340122;22;45278;-73
2023/10/16 19:17:30;;;;;;;;;10.25;7.75;;;;;;;;6340025;22;45227;-73
2023/10/16 19:19:57;;;;;;;;;8.00;7.00;;;;;;;;6340265;22;45168;-73
2023/10/16 19:22:23;;;;;;;;;16.50;13.75;;;;;;;;6311981;22;46729;-73
2023/10/16 19:24:48;;;;;;;;;16.50;12.50;;;;;;;;6340391;22;45092;-73
2023/10/16 19:27:13;;;;;;;;;13.75;12.75;;;;;;;;6340016;22;45272;-73
2023/10/16 19:29:39;;;;;;;;;16.00;11.00;;;;;;;;6311111;22;45574;-73
2023/10/16 19:32:06;;;;;;;;;14.75;14.00;;;;;;;;6340006;22;45333;-73
2023/10/16 19:34:31;;;;;;;;;10.25;10.25;;;;;;;;6340141;22;45172;-73
2023/10/16 19:36:56;;;;;;;;;14.00;12.50;;;;;;;;6339933;22;45313;-73
2023/10/16 19:39:22;;;;;;;;;11.00;10.50;;;;;;;;6340459;22;45208;-72
2023/10/16 19:41:52;;;;;;;;;7.25;7.25;;;;;;;;6339760;22;46324;-73
2023/10/16 19:44:17;;;;;;;;;8.00;6.25;;;;;;;;6311050;22;45232;-72
2023/10/16 19:46:42;;;;;;;;;7.00;7.00;;;;;;;;6340204;22;45212;-72
2023/10/16 19:49:07;;;;;;;;;8.00;6.75;;;;;;;;6339762;22;45196;-73
2023/10/16 19:51:32;;;;;;;;;4.00;4.00;;;;;;;;6310389;22;46665;-74
2023/10/16 19:54:00;;;;;;;;;7.75;6.25;;;;;;;;6340314;22;45214;-73
2023/10/16 19:56:26;;;;;;;;;5.50;4.75;;;;;;;;6339912;22;45335;-73
2023/10/16 19:58:52;;;;;;;;;4.50;4.50;;;;;;;;6311360;22;46088;-75
2023/10/16 20:01:17;;;;;;;;;5.00;4.50;;;;;;;;6339710;22;46056;-73
